sensor_id;sensor_type;location;lat;lon;timestamp;P1;durP1;ratioP1;P2;durP2;ratioP2
57433;SDS011;43277;52.672;6.984;2023-02-04T00:00:03;45.95;;;9.30;;
57433;SDS011;43277;52.672;6.984;2023-02-04T00:02:31;40.83;;;8.60;;
57433;SDS011;43277;52.672;6.984;2023-02-04T00:04:57;41.90;;;8.38;;
57433;SDS011;43277;52.672;6.984;2023-02-04T00:07:23;52.45;;;9.00;;
57433;SDS011;43277;52.672;6.984;2023-02-04T00:09:49;52.10;;;8.90;;
57433;SDS011;43277;52.672;6.984;2023-02-04T00:12:14;47.22;;;9.60;;
57433;SDS011;43277;52.672;6.984;2023-02-04T00:14:40;43.63;;;9.13;;
57433;SDS011;43277;52.672;6.984;2023-02-04T00:17:06;42.55;;;9.05;;
57433;SDS011;43277;52.672;6.984;2023-02-04T00:19:34;48.38;;;8.73;;
57433;SDS011;43277;52.672;6.984;2023-02-04T00:22:00;49.42;;;9.77;;
57433;SDS011;43277;52.672;6.984;2023-02-04T00:24:27;42.40;;;8.60;;
57433;SDS011;43277;52.672;6.984;2023-02-04T00:26:53;56.00;;;10.25;;
57433;SDS011;43277;52.672;6.984;2023-02-04T00:29:19;45.70;;;9.57;;
57433;SDS011;43277;52.672;6.984;2023-02-04T00:31:44;51.60;;;9.43;;
57433;SDS011;43277;52.672;6.984;2023-02-04T00:34:10;38.97;;;8.57;;
57433;SDS011;43277;52.672;6.984;2023-02-04T00:36:35;46.35;;;9.13;;
57433;SDS011;43277;52.672;6.984;2023-02-04T00:39:01;48.50;;;8.90;;
57433;SDS011;43277;52.672;6.984;2023-02-04T00:41:27;44.47;;;8.68;;
57433;SDS011;43277;52.672;6.984;2023-02-04T00:43:52;46.63;;;8.93;;
57433;SDS011;43277;52.672;6.984;2023-02-04T00:46:18;46.67;;;9.35;;
57433;SDS011;43277;52.672;6.984;2023-02-04T00:48:43;53.53;;;10.05;;
57433;SDS011;43277;52.672;6.984;2023-02-04T00:51:09;44.58;;;9.65;;
57433;SDS011;43277;52.672;6.984;2023-02-04T00:53:34;44.60;;;8.77;;
57433;SDS011;43277;52.672;6.984;2023-02-04T00:56:00;46.67;;;9.20;;
57433;SDS011;43277;52.672;6.984;2023-02-04T00:58:25;49.28;;;9.52;;
57433;SDS011;43277;52.672;6.984;2023-02-04T01:00:51;45.20;;;8.80;;
57433;SDS011;43277;52.672;6.984;2023-02-04T01:03:17;37.95;;;8.10;;
57433;SDS011;43277;52.672;6.984;2023-02-04T01:05:43;42.45;;;9.38;;
57433;SDS011;43277;52.672;6.984;2023-02-04T01:08:08;54.65;;;9.82;;
57433;SDS011;43277;52.672;6.984;2023-02-04T01:10:34;46.90;;;9.43;;
57433;SDS011;43277;52.672;6.984;2023-02-04T01:12:59;47.40;;;9.00;;
57433;SDS011;43277;52.672;6.984;2023-02-04T01:15:25;49.17;;;9.93;;
57433;SDS011;43277;52.672;6.984;2023-02-04T01:17:51;47.42;;;9.48;;
57433;SDS011;43277;52.672;6.984;2023-02-04T01:20:17;48.88;;;9.88;;
57433;SDS011;43277;52.672;6.984;2023-02-04T01:22:42;47.05;;;9.77;;
57433;SDS011;43277;52.672;6.984;2023-02-04T01:25:08;46.80;;;9.73;;
57433;SDS011;43277;52.672;6.984;2023-02-04T01:27:34;48.05;;;9.82;;
57433;SDS011;43277;52.672;6.984;2023-02-04T01:29:59;47.95;;;9.45;;
57433;SDS011;43277;52.672;6.984;2023-02-04T01:32:25;53.10;;;9.68;;
57433;SDS011;43277;52.672;6.984;2023-02-04T01:34:50;47.42;;;9.13;;
57433;SDS011;43277;52.672;6.984;2023-02-04T01:37:16;43.38;;;8.93;;
57433;SDS011;43277;52.672;6.984;2023-02-04T01:39:42;46.83;;;9.45;;
57433;SDS011;43277;52.672;6.984;2023-02-04T01:42:07;46.85;;;10.13;;
57433;SDS011;43277;52.672;6.984;2023-02-04T01:44:33;54.15;;;9.88;;
57433;SDS011;43277;52.672;6.984;2023-02-04T01:47:00;49.20;;;9.23;;
57433;SDS011;43277;52.672;6.984;2023-02-04T01:49:25;48.63;;;9.35;;
57433;SDS011;43277;52.672;6.984;2023-02-04T01:51:51;54.17;;;9.95;;
57433;SDS011;43277;52.672;6.984;2023-02-04T01:54:17;46.20;;;10.25;;
57433;SDS011;43277;52.672;6.984;2023-02-04T01:56:45;52.03;;;9.90;;
57433;SDS011;43277;52.672;6.984;2023-02-04T01:59:13;53.08;;;9.98;;
57433;SDS011;43277;52.672;6.984;2023-02-04T02:01:43;48.88;;;9.95;;
57433;SDS011;43277;52.672;6.984;2023-02-04T02:06:38;44.30;;;9.55;;
57433;SDS011;43277;52.672;6.984;2023-02-04T02:09:07;49.35;;;10.52;;
57433;SDS011;43277;52.672;6.984;2023-02-04T02:11:33;52.03;;;9.68;;
57433;SDS011;43277;52.672;6.984;2023-02-04T02:13:59;57.47;;;11.63;;
57433;SDS011;43277;52.672;6.984;2023-02-04T02:16:25;49.72;;;10.50;;
57433;SDS011;43277;52.672;6.984;2023-02-04T02:18:51;54.40;;;10.32;;
57433;SDS011;43277;52.672;6.984;2023-02-04T02:21:18;53.42;;;10.70;;
57433;SDS011;43277;52.672;6.984;2023-02-04T02:23:53;54.92;;;11.18;;
57433;SDS011;43277;52.672;6.984;2023-02-04T02:26:25;46.92;;;9.75;;
57433;SDS011;43277;52.672;6.984;2023-02-04T02:28:51;57.65;;;11.07;;
57433;SDS011;43277;52.672;6.984;2023-02-04T02:31:18;51.08;;;10.52;;
57433;SDS011;43277;52.672;6.984;2023-02-04T02:33:45;52.00;;;10.75;;
57433;SDS011;43277;52.672;6.984;2023-02-04T02:36:11;54.30;;;9.60;;
57433;SDS011;43277;52.672;6.984;2023-02-04T02:38:38;52.78;;;10.32;;
57433;SDS011;43277;52.672;6.984;2023-02-04T02:41:05;49.92;;;10.00;;
57433;SDS011;43277;52.672;6.984;2023-02-04T02:43:34;50.38;;;9.60;;
57433;SDS011;43277;52.672;6.984;2023-02-04T02:46:00;48.92;;;9.70;;
57433;SDS011;43277;52.672;6.984;2023-02-04T02:48:26;60.13;;;10.60;;
57433;SDS011;43277;52.672;6.984;2023-02-04T02:50:52;58.45;;;10.95;;
57433;SDS011;43277;52.672;6.984;2023-02-04T02:53:18;54.17;;;11.57;;
57433;SDS011;43277;52.672;6.984;2023-02-04T02:55:45;56.05;;;10.73;;
57433;SDS011;43277;52.672;6.984;2023-02-04T02:58:15;58.55;;;11.30;;
57433;SDS011;43277;52.672;6.984;2023-02-04T03:00:48;55.03;;;10.45;;
57433;SDS011;43277;52.672;6.984;2023-02-04T03:03:18;52.45;;;9.85;;
57433;SDS011;43277;52.672;6.984;2023-02-04T03:05:49;53.50;;;10.20;;
57433;SDS011;43277;52.672;6.984;2023-02-04T03:08:17;59.38;;;11.20;;
57433;SDS011;43277;52.672;6.984;2023-02-04T03:10:44;56.13;;;11.38;;
57433;SDS011;43277;52.672;6.984;2023-02-04T03:13:10;67.75;;;10.65;;
57433;SDS011;43277;52.672;6.984;2023-02-04T03:15:37;57.22;;;10.48;;
57433;SDS011;43277;52.672;6.984;2023-02-04T03:18:03;58.75;;;10.85;;
57433;SDS011;43277;52.672;6.984;2023-02-04T03:20:29;63.97;;;10.77;;
57433;SDS011;43277;52.672;6.984;2023-02-04T03:22:56;57.63;;;10.50;;
57433;SDS011;43277;52.672;6.984;2023-02-04T03:25:23;48.47;;;9.40;;
57433;SDS011;43277;52.672;6.984;2023-02-04T03:27:54;60.65;;;10.55;;
57433;SDS011;43277;52.672;6.984;2023-02-04T03:32:47;56.65;;;10.00;;
57433;SDS011;43277;52.672;6.984;2023-02-04T03:35:13;61.20;;;10.32;;
57433;SDS011;43277;52.672;6.984;2023-02-04T03:37:39;56.75;;;10.05;;
57433;SDS011;43277;52.672;6.984;2023-02-04T03:40:05;53.22;;;10.32;;
57433;SDS011;43277;52.672;6.984;2023-02-04T03:42:31;59.20;;;10.90;;
57433;SDS011;43277;52.672;6.984;2023-02-04T03:44:57;73.25;;;10.88;;
57433;SDS011;43277;52.672;6.984;2023-02-04T03:47:22;61.83;;;10.55;;
57433;SDS011;43277;52.672;6.984;2023-02-04T03:49:48;55.90;;;10.02;;
57433;SDS011;43277;52.672;6.984;2023-02-04T03:52:13;58.20;;;10.07;;
57433;SDS011;43277;52.672;6.984;2023-02-04T03:54:39;58.95;;;11.05;;
57433;SDS011;43277;52.672;6.984;2023-02-04T03:57:05;58.65;;;10.60;;
57433;SDS011;43277;52.672;6.984;2023-02-04T03:59:30;58.10;;;9.77;;
57433;SDS011;43277;52.672;6.984;2023-02-04T04:01:56;64.68;;;11.05;;
57433;SDS011;43277;52.672;6.984;2023-02-04T04:04:21;57.25;;;10.90;;
57433;SDS011;43277;52.672;6.984;2023-02-04T04:06:47;51.83;;;9.80;;
57433;SDS011;43277;52.672;6.984;2023-02-04T04:09:12;52.78;;;10.63;;
57433;SDS011;43277;52.672;6.984;2023-02-04T04:11:38;51.38;;;10.10;;
57433;SDS011;43277;52.672;6.984;2023-02-04T04:14:03;60.97;;;10.48;;
57433;SDS011;43277;52.672;6.984;2023-02-04T04:16:29;53.30;;;10.10;;
57433;SDS011;43277;52.672;6.984;2023-02-04T04:18:55;55.58;;;10.07;;
57433;SDS011;43277;52.672;6.984;2023-02-04T04:21:20;55.13;;;9.73;;
57433;SDS011;43277;52.672;6.984;2023-02-04T04:23:46;65.57;;;10.40;;
57433;SDS011;43277;52.672;6.984;2023-02-04T04:26:12;64.40;;;10.57;;
57433;SDS011;43277;52.672;6.984;2023-02-04T04:28:37;55.65;;;10.30;;
57433;SDS011;43277;52.672;6.984;2023-02-04T04:31:03;53.63;;;10.07;;
57433;SDS011;43277;52.672;6.984;2023-02-04T04:33:28;51.67;;;10.00;;
57433;SDS011;43277;52.672;6.984;2023-02-04T04:35:54;55.20;;;10.68;;
57433;SDS011;43277;52.672;6.984;2023-02-04T04:38:20;53.28;;;9.45;;
57433;SDS011;43277;52.672;6.984;2023-02-04T04:40:45;53.33;;;9.60;;
57433;SDS011;43277;52.672;6.984;2023-02-04T04:43:11;58.53;;;9.75;;
57433;SDS011;43277;52.672;6.984;2023-02-04T04:45:36;50.38;;;9.25;;
57433;SDS011;43277;52.672;6.984;2023-02-04T04:48:02;53.78;;;10.10;;
57433;SDS011;43277;52.672;6.984;2023-02-04T04:50:28;52.00;;;9.60;;
57433;SDS011;43277;52.672;6.984;2023-02-04T04:52:53;51.28;;;9.77;;
57433;SDS011;43277;52.672;6.984;2023-02-04T04:55:19;51.00;;;9.73;;
57433;SDS011;43277;52.672;6.984;2023-02-04T04:57:45;51.78;;;10.00;;
57433;SDS011;43277;52.672;6.984;2023-02-04T05:00:13;50.17;;;9.63;;
57433;SDS011;43277;52.672;6.984;2023-02-04T05:02:41;50.35;;;9.23;;
57433;SDS011;43277;52.672;6.984;2023-02-04T05:05:07;53.75;;;9.68;;
57433;SDS011;43277;52.672;6.984;2023-02-04T05:07:33;48.28;;;8.90;;
57433;SDS011;43277;52.672;6.984;2023-02-04T05:09:58;61.60;;;10.55;;
57433;SDS011;43277;52.672;6.984;2023-02-04T05:12:24;56.08;;;10.13;;
57433;SDS011;43277;52.672;6.984;2023-02-04T05:14:50;58.65;;;10.20;;
57433;SDS011;43277;52.672;6.984;2023-02-04T05:17:15;52.63;;;9.40;;
57433;SDS011;43277;52.672;6.984;2023-02-04T05:19:41;53.60;;;9.23;;
57433;SDS011;43277;52.672;6.984;2023-02-04T05:22:06;57.72;;;9.98;;
57433;SDS011;43277;52.672;6.984;2023-02-04T05:24:32;53.60;;;9.82;;
57433;SDS011;43277;52.672;6.984;2023-02-04T05:26:58;53.63;;;9.07;;
57433;SDS011;43277;52.672;6.984;2023-02-04T05:29:23;51.80;;;9.43;;
57433;SDS011;43277;52.672;6.984;2023-02-04T05:31:49;43.38;;;8.65;;
57433;SDS011;43277;52.672;6.984;2023-02-04T05:34:14;51.60;;;9.20;;
57433;SDS011;43277;52.672;6.984;2023-02-04T05:36:40;44.70;;;7.82;;
57433;SDS011;43277;52.672;6.984;2023-02-04T05:39:06;46.42;;;7.85;;
57433;SDS011;43277;52.672;6.984;2023-02-04T05:41:31;45.38;;;7.40;;
57433;SDS011;43277;52.672;6.984;2023-02-04T05:43:57;44.38;;;6.95;;
57433;SDS011;43277;52.672;6.984;2023-02-04T05:46:22;48.80;;;8.02;;
57433;SDS011;43277;52.672;6.984;2023-02-04T05:48:48;50.38;;;8.38;;
57433;SDS011;43277;52.672;6.984;2023-02-04T05:51:13;49.80;;;8.55;;
57433;SDS011;43277;52.672;6.984;2023-02-04T05:53:39;47.33;;;9.13;;
57433;SDS011;43277;52.672;6.984;2023-02-04T05:56:05;51.28;;;8.90;;
57433;SDS011;43277;52.672;6.984;2023-02-04T05:58:30;53.03;;;9.45;;
57433;SDS011;43277;52.672;6.984;2023-02-04T06:00:59;41.75;;;8.07;;
57433;SDS011;43277;52.672;6.984;2023-02-04T06:03:26;44.53;;;8.57;;
57433;SDS011;43277;52.672;6.984;2023-02-04T06:05:53;42.38;;;7.78;;
57433;SDS011;43277;52.672;6.984;2023-02-04T06:08:18;46.20;;;8.27;;
57433;SDS011;43277;52.672;6.984;2023-02-04T06:10:44;50.58;;;8.32;;
57433;SDS011;43277;52.672;6.984;2023-02-04T06:13:09;54.20;;;9.60;;
57433;SDS011;43277;52.672;6.984;2023-02-04T06:15:35;51.00;;;9.65;;
57433;SDS011;43277;52.672;6.984;2023-02-04T06:18:01;53.38;;;8.88;;
57433;SDS011;43277;52.672;6.984;2023-02-04T06:20:26;57.70;;;8.95;;
57433;SDS011;43277;52.672;6.984;2023-02-04T06:22:52;48.30;;;8.63;;
57433;SDS011;43277;52.672;6.984;2023-02-04T06:25:18;55.88;;;10.10;;
57433;SDS011;43277;52.672;6.984;2023-02-04T06:27:45;48.53;;;8.77;;
57433;SDS011;43277;52.672;6.984;2023-02-04T06:30:11;57.72;;;10.13;;
57433;SDS011;43277;52.672;6.984;2023-02-04T06:32:37;46.00;;;9.10;;
57433;SDS011;43277;52.672;6.984;2023-02-04T06:35:02;52.92;;;9.52;;
57433;SDS011;43277;52.672;6.984;2023-02-04T06:37:28;47.67;;;9.00;;
57433;SDS011;43277;52.672;6.984;2023-02-04T06:39:54;50.38;;;8.90;;
57433;SDS011;43277;52.672;6.984;2023-02-04T06:42:21;43.95;;;8.45;;
57433;SDS011;43277;52.672;6.984;2023-02-04T06:44:49;49.35;;;8.45;;
57433;SDS011;43277;52.672;6.984;2023-02-04T06:47:14;41.55;;;7.60;;
57433;SDS011;43277;52.672;6.984;2023-02-04T06:49:40;42.75;;;7.72;;
57433;SDS011;43277;52.672;6.984;2023-02-04T06:52:06;34.28;;;6.97;;
57433;SDS011;43277;52.672;6.984;2023-02-04T06:54:31;42.08;;;7.20;;
57433;SDS011;43277;52.672;6.984;2023-02-04T06:56:57;38.58;;;7.05;;
57433;SDS011;43277;52.672;6.984;2023-02-04T06:59:30;33.22;;;6.68;;
57433;SDS011;43277;52.672;6.984;2023-02-04T07:02:00;31.80;;;6.20;;
57433;SDS011;43277;52.672;6.984;2023-02-04T07:04:26;31.40;;;6.03;;
57433;SDS011;43277;52.672;6.984;2023-02-04T07:06:52;28.25;;;5.95;;
57433;SDS011;43277;52.672;6.984;2023-02-04T07:09:17;31.17;;;5.45;;
57433;SDS011;43277;52.672;6.984;2023-02-04T07:11:43;30.83;;;6.25;;
57433;SDS011;43277;52.672;6.984;2023-02-04T07:14:09;34.35;;;6.28;;
57433;SDS011;43277;52.672;6.984;2023-02-04T07:16:35;30.45;;;5.85;;
57433;SDS011;43277;52.672;6.984;2023-02-04T07:19:01;22.00;;;4.50;;
57433;SDS011;43277;52.672;6.984;2023-02-04T07:21:26;25.02;;;5.03;;
57433;SDS011;43277;52.672;6.984;2023-02-04T07:23:52;30.80;;;5.78;;
57433;SDS011;43277;52.672;6.984;2023-02-04T07:26:18;22.77;;;4.97;;
57433;SDS011;43277;52.672;6.984;2023-02-04T07:28:43;23.73;;;4.97;;
57433;SDS011;43277;52.672;6.984;2023-02-04T07:31:09;23.17;;;4.70;;
57433;SDS011;43277;52.672;6.984;2023-02-04T07:33:35;16.73;;;3.85;;
57433;SDS011;43277;52.672;6.984;2023-02-04T07:36:00;23.40;;;5.05;;
57433;SDS011;43277;52.672;6.984;2023-02-04T07:38:26;22.10;;;4.43;;
57433;SDS011;43277;52.672;6.984;2023-02-04T07:40:52;22.17;;;4.65;;
57433;SDS011;43277;52.672;6.984;2023-02-04T07:43:17;22.65;;;4.35;;
57433;SDS011;43277;52.672;6.984;2023-02-04T07:45:43;27.33;;;4.22;;
57433;SDS011;43277;52.672;6.984;2023-02-04T07:48:09;23.90;;;5.35;;
57433;SDS011;43277;52.672;6.984;2023-02-04T07:50:35;24.00;;;4.20;;
57433;SDS011;43277;52.672;6.984;2023-02-04T07:53:00;26.17;;;4.35;;
57433;SDS011;43277;52.672;6.984;2023-02-04T07:55:26;21.50;;;4.55;;
57433;SDS011;43277;52.672;6.984;2023-02-04T07:57:52;21.42;;;4.30;;
57433;SDS011;43277;52.672;6.984;2023-02-04T08:00:18;22.38;;;4.35;;
57433;SDS011;43277;52.672;6.984;2023-02-04T08:02:44;24.45;;;4.60;;
57433;SDS011;43277;52.672;6.984;2023-02-04T08:05:10;21.20;;;4.70;;
57433;SDS011;43277;52.672;6.984;2023-02-04T08:07:35;19.52;;;3.78;;
57433;SDS011;43277;52.672;6.984;2023-02-04T08:10:02;22.85;;;5.22;;
57433;SDS011;43277;52.672;6.984;2023-02-04T08:12:28;16.95;;;3.47;;
57433;SDS011;43277;52.672;6.984;2023-02-04T08:14:54;22.83;;;3.72;;
57433;SDS011;43277;52.672;6.984;2023-02-04T08:17:20;19.33;;;3.83;;
57433;SDS011;43277;52.672;6.984;2023-02-04T08:19:45;17.08;;;3.45;;
57433;SDS011;43277;52.672;6.984;2023-02-04T08:22:11;15.65;;;3.42;;
57433;SDS011;43277;52.672;6.984;2023-02-04T08:24:37;17.33;;;3.00;;
57433;SDS011;43277;52.672;6.984;2023-02-04T08:27:02;17.58;;;3.20;;
57433;SDS011;43277;52.672;6.984;2023-02-04T08:29:28;16.05;;;3.10;;
57433;SDS011;43277;52.672;6.984;2023-02-04T08:31:53;14.55;;;3.25;;
57433;SDS011;43277;52.672;6.984;2023-02-04T08:34:19;16.15;;;3.13;;
57433;SDS011;43277;52.672;6.984;2023-02-04T08:36:45;15.10;;;2.92;;
57433;SDS011;43277;52.672;6.984;2023-02-04T08:39:10;14.00;;;3.00;;
57433;SDS011;43277;52.672;6.984;2023-02-04T08:41:36;17.75;;;2.88;;
57433;SDS011;43277;52.672;6.984;2023-02-04T08:44:02;13.85;;;2.70;;
57433;SDS011;43277;52.672;6.984;2023-02-04T08:46:28;14.73;;;3.20;;
57433;SDS011;43277;52.672;6.984;2023-02-04T08:48:53;15.05;;;3.13;;
57433;SDS011;43277;52.672;6.984;2023-02-04T08:51:19;14.95;;;3.58;;
57433;SDS011;43277;52.672;6.984;2023-02-04T08:53:45;16.27;;;3.88;;
57433;SDS011;43277;52.672;6.984;2023-02-04T08:56:10;12.55;;;3.65;;
57433;SDS011;43277;52.672;6.984;2023-02-04T08:58:41;12.27;;;3.70;;
57433;SDS011;43277;52.672;6.984;2023-02-04T09:01:07;10.05;;;2.83;;
57433;SDS011;43277;52.672;6.984;2023-02-04T09:03:35;11.75;;;2.92;;
57433;SDS011;43277;52.672;6.984;2023-02-04T09:06:01;13.45;;;2.83;;
57433;SDS011;43277;52.672;6.984;2023-02-04T09:08:26;14.98;;;3.80;;
57433;SDS011;43277;52.672;6.984;2023-02-04T09:10:52;17.52;;;3.25;;
57433;SDS011;43277;52.672;6.984;2023-02-04T09:13:17;13.45;;;2.95;;
57433;SDS011;43277;52.672;6.984;2023-02-04T09:15:43;15.85;;;2.97;;
57433;SDS011;43277;52.672;6.984;2023-02-04T09:18:09;9.35;;;2.80;;
57433;SDS011;43277;52.672;6.984;2023-02-04T09:20:44;13.35;;;2.85;;
57433;SDS011;43277;52.672;6.984;2023-02-04T09:23:10;13.15;;;3.00;;
57433;SDS011;43277;52.672;6.984;2023-02-04T09:25:37;14.43;;;2.97;;
57433;SDS011;43277;52.672;6.984;2023-02-04T09:28:03;10.35;;;2.70;;
57433;SDS011;43277;52.672;6.984;2023-02-04T09:30:29;12.80;;;2.53;;
57433;SDS011;43277;52.672;6.984;2023-02-04T09:32:55;13.93;;;3.10;;
57433;SDS011;43277;52.672;6.984;2023-02-04T09:35:21;11.45;;;2.70;;
57433;SDS011;43277;52.672;6.984;2023-02-04T09:37:46;12.75;;;2.80;;
57433;SDS011;43277;52.672;6.984;2023-02-04T09:40:15;11.52;;;2.88;;
57433;SDS011;43277;52.672;6.984;2023-02-04T09:42:43;10.57;;;2.80;;
57433;SDS011;43277;52.672;6.984;2023-02-04T09:45:18;13.80;;;3.17;;
57433;SDS011;43277;52.672;6.984;2023-02-04T09:47:57;13.30;;;3.08;;
57433;SDS011;43277;52.672;6.984;2023-02-04T09:50:25;10.13;;;2.40;;
57433;SDS011;43277;52.672;6.984;2023-02-04T09:52:53;14.40;;;3.35;;
57433;SDS011;43277;52.672;6.984;2023-02-04T09:55:23;12.63;;;3.00;;
57433;SDS011;43277;52.672;6.984;2023-02-04T09:57:55;13.45;;;2.50;;
57433;SDS011;43277;52.672;6.984;2023-02-04T10:00:22;9.77;;;2.88;;
57433;SDS011;43277;52.672;6.984;2023-02-04T10:02:49;10.43;;;2.75;;
57433;SDS011;43277;52.672;6.984;2023-02-04T10:05:16;12.20;;;3.17;;
57433;SDS011;43277;52.672;6.984;2023-02-04T10:07:44;9.63;;;2.75;;
57433;SDS011;43277;52.672;6.984;2023-02-04T10:10:17;12.18;;;3.00;;
57433;SDS011;43277;52.672;6.984;2023-02-04T10:12:50;13.52;;;2.67;;
57433;SDS011;43277;52.672;6.984;2023-02-04T10:15:24;11.30;;;2.70;;
57433;SDS011;43277;52.672;6.984;2023-02-04T10:17:52;13.23;;;2.70;;
57433;SDS011;43277;52.672;6.984;2023-02-04T10:20:22;8.98;;;2.50;;
57433;SDS011;43277;52.672;6.984;2023-02-04T10:22:50;11.10;;;3.15;;
57433;SDS011;43277;52.672;6.984;2023-02-04T10:25:19;9.75;;;2.70;;
57433;SDS011;43277;52.672;6.984;2023-02-04T10:27:50;11.57;;;2.92;;
57433;SDS011;43277;52.672;6.984;2023-02-04T10:30:29;9.05;;;2.33;;
57433;SDS011;43277;52.672;6.984;2023-02-04T10:33:11;10.88;;;2.45;;
57433;SDS011;43277;52.672;6.984;2023-02-04T10:35:48;11.80;;;2.60;;
57433;SDS011;43277;52.672;6.984;2023-02-04T10:40:41;10.98;;;2.80;;
57433;SDS011;43277;52.672;6.984;2023-02-04T10:43:12;12.48;;;2.85;;
57433;SDS011;43277;52.672;6.984;2023-02-04T10:45:43;11.15;;;2.50;;
57433;SDS011;43277;52.672;6.984;2023-02-04T10:48:14;9.65;;;2.63;;
57433;SDS011;43277;52.672;6.984;2023-02-04T10:50:41;9.52;;;2.22;;
57433;SDS011;43277;52.672;6.984;2023-02-04T10:53:07;10.70;;;2.88;;
57433;SDS011;43277;52.672;6.984;2023-02-04T10:55:54;10.93;;;3.30;;
57433;SDS011;43277;52.672;6.984;2023-02-04T10:58:23;10.73;;;2.60;;
57433;SDS011;43277;52.672;6.984;2023-02-04T11:00:52;11.77;;;3.03;;
57433;SDS011;43277;52.672;6.984;2023-02-04T11:05:46;11.98;;;4.28;;
57433;SDS011;43277;52.672;6.984;2023-02-04T11:08:25;10.73;;;3.70;;
57433;SDS011;43277;52.672;6.984;2023-02-04T11:13:37;10.30;;;3.63;;
57433;SDS011;43277;52.672;6.984;2023-02-04T11:18:54;9.88;;;2.85;;
57433;SDS011;43277;52.672;6.984;2023-02-04T11:21:28;11.80;;;3.42;;
57433;SDS011;43277;52.672;6.984;2023-02-04T11:24:05;9.88;;;3.00;;
57433;SDS011;43277;52.672;6.984;2023-02-04T11:26:43;9.65;;;2.88;;
57433;SDS011;43277;52.672;6.984;2023-02-04T11:31:41;9.75;;;3.05;;
57433;SDS011;43277;52.672;6.984;2023-02-04T11:39:36;8.60;;;2.42;;
57433;SDS011;43277;52.672;6.984;2023-02-04T11:42:04;10.23;;;3.13;;
57433;SDS011;43277;52.672;6.984;2023-02-04T11:44:30;8.77;;;2.55;;
57433;SDS011;43277;52.672;6.984;2023-02-04T11:46:57;7.20;;;2.65;;
57433;SDS011;43277;52.672;6.984;2023-02-04T11:49:25;11.27;;;3.00;;
57433;SDS011;43277;52.672;6.984;2023-02-04T11:52:01;9.45;;;2.47;;
57433;SDS011;43277;52.672;6.984;2023-02-04T11:54:32;8.82;;;2.40;;
57433;SDS011;43277;52.672;6.984;2023-02-04T11:56:58;7.50;;;2.60;;
57433;SDS011;43277;52.672;6.984;2023-02-04T11:59:25;10.75;;;2.80;;
57433;SDS011;43277;52.672;6.984;2023-02-04T12:02:02;9.07;;;3.22;;
57433;SDS011;43277;52.672;6.984;2023-02-04T12:04:29;11.23;;;3.22;;
57433;SDS011;43277;52.672;6.984;2023-02-04T12:06:59;10.50;;;3.60;;
57433;SDS011;43277;52.672;6.984;2023-02-04T12:09:26;9.85;;;2.83;;
57433;SDS011;43277;52.672;6.984;2023-02-04T12:14:35;8.07;;;2.50;;
57433;SDS011;43277;52.672;6.984;2023-02-04T12:17:18;8.82;;;2.65;;
57433;SDS011;43277;52.672;6.984;2023-02-04T12:19:44;9.50;;;3.05;;
57433;SDS011;43277;52.672;6.984;2023-02-04T12:22:10;11.18;;;3.30;;
57433;SDS011;43277;52.672;6.984;2023-02-04T12:24:37;10.07;;;2.75;;
57433;SDS011;43277;52.672;6.984;2023-02-04T12:27:02;7.25;;;2.38;;
57433;SDS011;43277;52.672;6.984;2023-02-04T12:29:28;7.35;;;2.55;;
57433;SDS011;43277;52.672;6.984;2023-02-04T12:31:54;8.50;;;2.35;;
57433;SDS011;43277;52.672;6.984;2023-02-04T12:34:19;7.88;;;2.42;;
57433;SDS011;43277;52.672;6.984;2023-02-04T12:36:45;8.80;;;2.28;;
57433;SDS011;43277;52.672;6.984;2023-02-04T12:39:10;6.88;;;2.40;;
57433;SDS011;43277;52.672;6.984;2023-02-04T12:41:36;11.07;;;2.63;;
57433;SDS011;43277;52.672;6.984;2023-02-04T12:44:02;8.00;;;2.58;;
57433;SDS011;43277;52.672;6.984;2023-02-04T12:46:28;7.47;;;2.67;;
57433;SDS011;43277;52.672;6.984;2023-02-04T12:48:54;9.05;;;2.55;;
57433;SDS011;43277;52.672;6.984;2023-02-04T12:51:20;9.05;;;2.65;;
57433;SDS011;43277;52.672;6.984;2023-02-04T12:53:46;7.85;;;2.53;;
57433;SDS011;43277;52.672;6.984;2023-02-04T12:56:12;7.93;;;2.78;;
57433;SDS011;43277;52.672;6.984;2023-02-04T12:58:38;10.40;;;3.03;;
57433;SDS011;43277;52.672;6.984;2023-02-04T13:01:04;10.93;;;2.65;;
57433;SDS011;43277;52.672;6.984;2023-02-04T13:03:30;9.18;;;2.60;;
57433;SDS011;43277;52.672;6.984;2023-02-04T13:05:56;8.35;;;2.53;;
57433;SDS011;43277;52.672;6.984;2023-02-04T13:08:22;10.50;;;3.15;;
57433;SDS011;43277;52.672;6.984;2023-02-04T13:10:48;9.35;;;2.78;;
57433;SDS011;43277;52.672;6.984;2023-02-04T13:13:16;10.55;;;2.80;;
57433;SDS011;43277;52.672;6.984;2023-02-04T13:15:43;9.02;;;3.35;;
57433;SDS011;43277;52.672;6.984;2023-02-04T13:18:09;8.15;;;2.72;;
57433;SDS011;43277;52.672;6.984;2023-02-04T13:20:34;8.93;;;2.70;;
57433;SDS011;43277;52.672;6.984;2023-02-04T13:23:00;9.75;;;2.80;;
57433;SDS011;43277;52.672;6.984;2023-02-04T13:25:26;7.00;;;2.85;;
57433;SDS011;43277;52.672;6.984;2023-02-04T13:27:51;8.23;;;2.92;;
57433;SDS011;43277;52.672;6.984;2023-02-04T13:30:17;10.75;;;2.90;;
57433;SDS011;43277;52.672;6.984;2023-02-04T13:32:43;9.05;;;2.75;;
57433;SDS011;43277;52.672;6.984;2023-02-04T13:35:09;9.95;;;2.72;;
57433;SDS011;43277;52.672;6.984;2023-02-04T13:37:34;7.95;;;2.88;;
57433;SDS011;43277;52.672;6.984;2023-02-04T13:40:00;8.48;;;2.58;;
57433;SDS011;43277;52.672;6.984;2023-02-04T13:42:25;9.23;;;3.00;;
57433;SDS011;43277;52.672;6.984;2023-02-04T13:44:51;8.30;;;2.70;;
57433;SDS011;43277;52.672;6.984;2023-02-04T13:47:18;10.35;;;3.25;;
57433;SDS011;43277;52.672;6.984;2023-02-04T13:49:43;9.43;;;2.85;;
57433;SDS011;43277;52.672;6.984;2023-02-04T13:52:09;8.00;;;2.47;;
57433;SDS011;43277;52.672;6.984;2023-02-04T13:54:34;10.27;;;2.80;;
57433;SDS011;43277;52.672;6.984;2023-02-04T13:57:00;7.15;;;2.40;;
57433;SDS011;43277;52.672;6.984;2023-02-04T13:59:26;7.57;;;2.38;;
57433;SDS011;43277;52.672;6.984;2023-02-04T14:01:51;9.25;;;2.90;;
57433;SDS011;43277;52.672;6.984;2023-02-04T14:04:17;10.90;;;3.15;;
57433;SDS011;43277;52.672;6.984;2023-02-04T14:06:42;8.45;;;2.55;;
57433;SDS011;43277;52.672;6.984;2023-02-04T14:09:09;9.02;;;3.00;;
57433;SDS011;43277;52.672;6.984;2023-02-04T14:11:36;7.25;;;2.95;;
57433;SDS011;43277;52.672;6.984;2023-02-04T14:14:02;8.55;;;2.55;;
57433;SDS011;43277;52.672;6.984;2023-02-04T14:16:28;9.40;;;2.83;;
57433;SDS011;43277;52.672;6.984;2023-02-04T14:18:53;7.65;;;2.72;;
57433;SDS011;43277;52.672;6.984;2023-02-04T14:21:19;7.55;;;3.00;;
57433;SDS011;43277;52.672;6.984;2023-02-04T14:23:44;6.63;;;2.50;;
57433;SDS011;43277;52.672;6.984;2023-02-04T14:26:10;7.68;;;2.60;;
57433;SDS011;43277;52.672;6.984;2023-02-04T14:28:36;9.13;;;2.88;;
57433;SDS011;43277;52.672;6.984;2023-02-04T14:31:01;8.50;;;2.92;;
57433;SDS011;43277;52.672;6.984;2023-02-04T14:33:27;12.45;;;3.40;;
57433;SDS011;43277;52.672;6.984;2023-02-04T14:35:52;9.55;;;3.13;;
57433;SDS011;43277;52.672;6.984;2023-02-04T14:38:18;11.93;;;3.67;;
57433;SDS011;43277;52.672;6.984;2023-02-04T14:40:44;7.68;;;2.80;;
57433;SDS011;43277;52.672;6.984;2023-02-04T14:43:09;8.85;;;2.95;;
57433;SDS011;43277;52.672;6.984;2023-02-04T14:45:36;7.97;;;3.15;;
57433;SDS011;43277;52.672;6.984;2023-02-04T14:48:02;8.98;;;3.22;;
57433;SDS011;43277;52.672;6.984;2023-02-04T14:50:28;8.18;;;3.00;;
57433;SDS011;43277;52.672;6.984;2023-02-04T14:52:54;8.75;;;3.20;;
57433;SDS011;43277;52.672;6.984;2023-02-04T14:55:23;10.73;;;3.67;;
57433;SDS011;43277;52.672;6.984;2023-02-04T14:57:50;9.10;;;3.00;;